Time;durP1;ratioP1;P1;durP2;ratioP2;P2;SDS_P1;SDS_P2;PMS_P1;PMS_P2;Temp;Humidity;BMP_temperature;BMP_pressure;BME280_temperature;BME280_humidity;BME280_pressure;Samples;Min_cycle;Max_cycle;Signal;HPM_P1;HPM_P2
2022/08/07 00:00:11;;;;;;;20.40;11.20;;;;;;;23.49;56.61;100276.30;124236;1099;104226;-74
2022/08/07 00:03:02;;;;;;;18.67;11.17;;;;;;;23.50;56.81;100278.07;124091;1099;104251;-75
2022/08/07 00:05:31;;;;;;;19.27;11.90;;;;;;;23.47;56.87;100274.59;124214;1099;101928;-75
2022/08/07 00:08:00;;;;;;;19.87;11.83;;;;;;;23.41;57.36;100272.03;124238;1099;104246;-75
2022/08/07 00:10:28;;;;;;;18.60;10.73;;;;;;;23.35;57.46;100280.20;124185;1099;104178;-75
2022/08/07 00:12:59;;;;;;;18.73;11.23;;;;;;;23.29;57.36;100284.73;124192;1099;104238;-75
2022/08/07 00:15:28;;;;;;;19.15;12.10;;;;;;;23.27;57.40;100280.34;124196;1102;104194;-75
2022/08/07 00:17:57;;;;;;;21.23;12.20;;;;;;;23.23;57.92;100287.53;124206;1102;102206;-75
2022/08/07 00:20:25;;;;;;;20.50;11.73;;;;;;;23.19;57.73;100287.63;124201;1099;101960;-75
2022/08/07 00:22:54;;;;;;;20.97;12.40;;;;;;;23.13;58.08;100285.97;124415;1098;104240;-75
2022/08/07 00:25:23;;;;;;;30.13;12.37;;;;;;;23.07;58.85;100278.90;124681;1099;104172;-75
2022/08/07 00:27:52;;;;;;;21.60;12.90;;;;;;;23.03;58.82;100279.89;124647;1099;104380;-75
2022/08/07 00:30:21;;;;;;;21.27;13.07;;;;;;;22.97;58.89;100285.36;124178;1099;104159;-75
2022/08/07 00:32:50;;;;;;;21.43;12.90;;;;;;;22.92;59.03;100282.77;124213;1099;104274;-75
2022/08/07 00:35:20;;;;;;;22.60;12.80;;;;;;;22.88;58.99;100285.53;124096;1099;104310;-75
2022/08/07 00:37:49;;;;;;;20.63;13.03;;;;;;;22.89;59.51;100296.20;124217;1099;103567;-75
2022/08/07 00:40:18;;;;;;;21.17;12.93;;;;;;;22.88;59.03;100290.88;124224;1099;104842;-75
2022/08/07 00:42:47;;;;;;;21.80;13.17;;;;;;;22.87;59.62;100291.78;124726;1099;104163;-74
2022/08/07 00:45:15;;;;;;;20.73;12.50;;;;;;;22.85;59.53;100289.13;124662;1099;104166;-75
2022/08/07 00:47:44;;;;;;;23.60;12.97;;;;;;;22.83;59.90;100295.41;124638;1099;104223;-75
2022/08/07 00:50:13;;;;;;;19.50;12.17;;;;;;;22.80;59.84;100297.23;124255;1099;101819;-74
2022/08/07 00:52:42;;;;;;;20.03;12.83;;;;;;;22.80;59.77;100293.69;124219;1097;104162;-75
2022/08/07 00:55:11;;;;;;;24.40;13.97;;;;;;;22.80;60.32;100299.05;124248;1099;104235;-75
2022/08/07 00:57:39;;;;;;;22.73;13.30;;;;;;;22.75;60.36;100300.89;124152;1099;104294;-75
2022/08/07 01:00:11;;;;;;;21.77;13.83;;;;;;;22.69;60.27;100301.00;124142;1099;104348;-75
2022/08/07 01:02:41;;;;;;;23.10;13.40;;;;;;;22.63;60.13;100312.70;124737;1099;102915;-75
2022/08/07 01:05:12;;;;;;;21.07;13.97;;;;;;;22.55;60.06;100310.16;124620;1098;104365;-74
2022/08/07 01:07:41;;;;;;;26.73;13.90;;;;;;;22.52;60.26;100309.34;124700;1098;104757;-74
2022/08/07 01:10:11;;;;;;;20.80;14.13;;;;;;;22.49;60.56;100312.94;124186;1099;104242;-75
2022/08/07 01:12:41;;;;;;;23.60;13.07;;;;;;;22.48;61.25;100310.28;124168;1099;104060;-75
2022/08/07 01:15:11;;;;;;;21.63;13.50;;;;;;;22.43;61.48;100307.69;124159;1102;104214;-75
2022/08/07 01:17:40;;;;;;;23.30;13.77;;;;;;;22.46;60.87;100318.33;124145;1099;104290;-75
2022/08/07 01:20:12;;;;;;;22.10;14.23;;;;;;;22.47;61.49;100314.76;124240;1099;104267;-75
2022/08/07 01:22:42;;;;;;;22.20;13.43;;;;;;;22.49;61.07;100312.06;124200;1099;104358;-74
2022/08/07 01:25:11;;;;;;;25.47;14.00;;;;;;;22.43;60.90;100315.70;124529;1099;104428;-75
2022/08/07 01:27:41;;;;;;;21.67;13.13;;;;;;;22.36;61.59;100314.02;124180;1102;104236;-75
2022/08/07 01:30:12;;;;;;;24.30;14.20;;;;;;;22.29;61.81;100312.34;124187;1099;102775;-75
2022/08/07 01:32:41;;;;;;;22.50;13.80;;;;;;;22.24;61.85;100326.65;124205;1099;104213;-75
2022/08/07 01:35:11;;;;;;;22.10;14.37;;;;;;;22.18;61.77;100325.86;124184;1099;104363;-75
2022/08/07 01:37:40;;;;;;;23.50;14.07;;;;;;;22.13;62.44;100325.03;124159;1099;104670;-75
2022/08/07 01:40:12;;;;;;;25.13;14.40;;;;;;;22.09;62.89;100326.88;124259;1102;104151;-75
2022/08/07 01:42:41;;;;;;;23.53;14.67;;;;;;;22.02;62.88;100314.53;124180;1102;104226;-75
2022/08/07 01:45:12;;;;;;;22.03;13.97;;;;;;;22.01;62.57;100321.64;124170;1102;104396;-74
2022/08/07 01:47:41;;;;;;;22.33;13.70;;;;;;;22.04;62.97;100326.06;124167;1102;104329;-74
2022/08/07 01:50:11;;;;;;;22.97;13.77;;;;;;;22.08;62.36;100322.45;124142;1102;104440;-75
2022/08/07 01:52:41;;;;;;;23.03;13.47;;;;;;;22.05;63.31;100322.50;124167;1102;104643;-74
2022/08/07 01:55:12;;;;;;;23.93;14.37;;;;;;;22.01;63.36;100326.11;124193;1102;104354;-74
2022/08/07 01:57:45;;;;;;;23.60;14.70;;;;;;;21.96;63.63;100326.17;124187;1102;102610;-75
2022/08/07 02:00:15;;;;;;;21.57;12.97;;;;;;;21.90;63.48;100329.80;124156;1102;104377;-75
2022/08/07 02:02:50;;;;;;;21.13;13.93;;;;;;;21.86;63.94;100328.09;124168;1102;104232;-75
2022/08/07 02:05:29;;;;;;;22.40;14.10;;;;;;;21.83;63.37;100329.91;124197;1102;102845;-75
2022/08/07 02:08:07;;;;;;;21.37;13.80;;;;;;;21.81;64.33;100332.59;124179;1102;104281;-75
2022/08/07 02:10:41;;;;;;;24.83;14.77;;;;;;;21.78;63.46;100337.97;124195;1102;104680;-75
2022/08/07 02:13:11;;;;;;;24.00;13.77;;;;;;;21.75;63.52;100338.02;124201;1102;102972;-75
2022/08/07 02:15:53;;;;;;;23.47;13.93;;;;;;;21.71;63.61;100344.31;124145;1099;104526;-75
2022/08/07 02:18:22;;;;;;;22.43;14.20;;;;;;;21.68;63.80;100347.02;124178;1102;104281;-75
2022/08/07 02:20:54;;;;;;;21.23;13.73;;;;;;;21.64;64.65;100342.61;124352;1099;104242;-75
2022/08/07 02:23:24;;;;;;;23.70;13.90;;;;;;;21.60;64.65;100343.54;124269;1102;104281;-75
2022/08/07 02:25:54;;;;;;;23.87;13.77;;;;;;;21.54;64.86;100336.52;124221;1102;104312;-75
2022/08/07 02:28:26;;;;;;;24.13;13.53;;;;;;;21.51;64.97;100334.75;124643;1098;104246;-74
2022/08/07 02:30:58;;;;;;;21.90;13.13;;;;;;;21.52;65.37;100341.00;124541;1099;104175;-74
2022/08/07 02:33:29;;;;;;;23.77;14.03;;;;;;;21.53;65.23;100342.74;124141;1099;104328;-74
2022/08/07 02:36:00;;;;;;;22.60;13.53;;;;;;;21.51;65.08;100341.89;124212;1102;104166;-74
2022/08/07 02:38:36;;;;;;;24.70;14.23;;;;;;;21.49;65.33;100346.38;124199;1099;104300;-75
2022/08/07 02:41:06;;;;;;;20.87;13.60;;;;;;;21.46;65.39;100344.58;124151;1102;104105;-75
2022/08/07 02:43:38;;;;;;;22.83;13.97;;;;;;;21.42;65.79;100342.83;124183;1099;104239;-75
2022/08/07 02:46:10;;;;;;;22.13;13.73;;;;;;;21.38;65.06;100343.79;124181;1099;102235;-75
2022/08/07 02:48:39;;;;;;;23.17;14.57;;;;;;;21.34;65.51;100352.72;124165;1099;104233;-74
2022/08/07 02:51:12;;;;;;;23.13;13.40;;;;;;;21.33;66.03;100350.94;124167;1102;104172;-75
2022/08/07 02:53:43;;;;;;;22.10;14.98;;;;;;;21.28;65.41;100352.78;124183;1102;104300;-74
2022/08/07 02:56:17;;;;;;;22.27;13.93;;;;;;;21.23;65.34;100357.30;124176;1102;104322;-75
2022/08/07 02:58:48;;;;;;;24.00;14.98;;;;;;;21.21;66.32;100361.73;124205;1102;102784;-75
2022/08/07 03:01:19;;;;;;;21.90;13.93;;;;;;;21.17;66.68;100356.44;124158;1102;104183;-74
2022/08/07 03:03:49;;;;;;;25.10;14.30;;;;;;;21.14;66.73;100364.47;124311;1102;104242;-75
2022/08/07 03:06:21;;;;;;;23.70;13.87;;;;;;;21.12;66.55;100362.73;124221;1102;104354;-74
2022/08/07 03:08:50;;;;;;;24.17;14.37;;;;;;;21.08;66.89;100352.98;124775;1099;103591;-75
2022/08/07 03:11:19;;;;;;;23.57;14.67;;;;;;;21.05;67.01;100369.02;124580;1099;104239;-75
2022/08/07 03:13:49;;;;;;;22.90;14.07;;;;;;;21.00;66.79;100364.63;124205;1100;102241;-74
2022/08/07 03:16:18;;;;;;;25.53;14.47;;;;;;;20.99;67.14;100368.19;124243;1099;104366;-75
2022/08/07 03:18:48;;;;;;;23.83;14.77;;;;;;;20.97;67.03;100363.75;124188;1099;102778;-74
2022/08/07 03:21:17;;;;;;;23.00;13.40;;;;;;;20.96;67.47;100367.34;124196;1102;102963;-75
2022/08/07 03:23:47;;;;;;;22.17;14.03;;;;;;;20.96;67.24;100373.55;124662;1098;112120;-75
2022/08/07 03:26:20;;;;;;;20.40;13.33;;;;;;;20.94;67.94;100369.12;124663;1099;104217;-75
2022/08/07 03:28:50;;;;;;;23.90;13.90;;;;;;;20.94;67.41;100363.78;124237;1101;104159;-75
2022/08/07 03:31:21;;;;;;;24.03;13.90;;;;;;;20.94;68.12;100361.11;124241;1102;104180;-75
2022/08/07 03:33:58;;;;;;;22.77;13.73;;;;;;;20.95;68.06;100370.90;124146;1102;104261;-75
2022/08/07 03:36:29;;;;;;;22.07;14.17;;;;;;;20.99;67.70;100372.65;124143;1102;103575;-75
2022/08/07 03:39:02;;;;;;;22.90;13.17;;;;;;;21.03;67.76;100374.37;124200;1099;104274;-74
2022/08/07 03:41:32;;;;;;;25.47;14.63;;;;;;;21.09;67.91;100368.97;124187;1102;104243;-75
2022/08/07 03:44:01;;;;;;;24.57;13.60;;;;;;;21.11;68.23;100371.63;124588;1099;104201;-75
2022/08/07 03:46:33;;;;;;;22.80;14.33;;;;;;;21.15;67.56;100368.92;124264;1102;104242;-75
2022/08/07 03:49:03;;;;;;;22.43;14.73;;;;;;;21.16;67.93;100368.03;124342;1099;102889;-75
2022/08/07 03:51:33;;;;;;;22.43;14.13;;;;;;;21.18;67.69;100371.55;124207;1102;104315;-74
2022/08/07 03:54:03;;;;;;;23.63;13.83;;;;;;;21.18;68.06;100368.89;124129;1102;104484;-80
2022/08/07 03:56:35;;;;;;;23.60;14.50;;;;;;;21.19;68.27;100372.43;124118;1102;104241;-75
2022/08/07 03:59:06;;;;;;;22.13;13.73;;;;;;;21.23;68.18;100376.84;124202;1102;104376;-75
2022/08/07 04:01:40;;;;;;;21.27;13.73;;;;;;;21.24;67.99;100381.30;124169;1102;104243;-75
2022/08/07 04:04:09;;;;;;;21.87;13.77;;;;;;;21.24;68.50;100378.63;124152;1099;104303;-75
2022/08/07 04:06:39;;;;;;;23.47;13.77;;;;;;;21.25;69.18;100376.83;124144;1102;104236;-75
2022/08/07 04:09:15;;;;;;;21.27;13.73;;;;;;;21.24;68.30;100381.30;124139;1102;104575;-74
2022/08/07 04:11:45;;;;;;;23.35;14.10;;;;;;;21.23;68.53;100382.19;124220;1102;104248;-75
2022/08/07 04:14:15;;;;;;;22.43;14.13;;;;;;;21.23;68.85;100383.98;124090;1102;104224;-74
2022/08/07 04:16:44;;;;;;;22.53;14.00;;;;;;;21.24;68.50;100391.97;124153;1102;104166;-74
2022/08/07 04:19:13;;;;;;;22.10;13.40;;;;;;;21.22;68.56;100385.73;124160;1102;104262;-75
2022/08/07 04:21:42;;;;;;;23.30;14.45;;;;;;;21.24;68.75;100386.63;124146;1102;104371;-75
2022/08/07 04:24:11;;;;;;;23.23;13.60;;;;;;;21.26;69.27;100382.16;124208;1102;104159;-75
2022/08/07 04:26:40;;;;;;;22.13;13.67;;;;;;;21.30;69.84;100383.90;124183;1102;104673;-75
2022/08/07 04:29:10;;;;;;;22.47;13.80;;;;;;;21.35;69.33;100383.86;124172;1102;104424;-74
2022/08/07 04:31:39;;;;;;;22.07;13.53;;;;;;;21.41;68.62;100383.79;124171;1102;104427;-74
2022/08/07 04:34:09;;;;;;;23.83;13.10;;;;;;;21.45;69.00;100385.50;124137;1102;104165;-75
2022/08/07 04:36:39;;;;;;;23.77;13.30;;;;;;;21.51;69.63;100390.81;123980;1104;104489;-75
2022/08/07 04:39:08;;;;;;;24.10;13.40;;;;;;;21.59;68.74;100390.72;123961;1105;102800;-75
2022/08/07 04:41:38;;;;;;;22.27;12.87;;;;;;;21.67;69.09;100399.52;124009;1102;104427;-75
2022/08/07 04:44:08;;;;;;;21.00;12.93;;;;;;;21.73;69.13;100394.11;124134;1102;104575;-74
2022/08/07 04:46:46;;;;;;;20.83;12.53;;;;;;;21.81;69.63;100402.03;124136;1102;104182;-75
2022/08/07 04:49:30;;;;;;;20.73;12.43;;;;;;;21.89;68.52;100397.50;124179;1102;102820;-74
2022/08/07 04:52:18;;;;;;;20.87;11.80;;;;;;;21.97;68.96;100399.17;124199;1102;104160;-75
2022/08/07 04:54:56;;;;;;;22.53;12.20;;;;;;;22.04;69.05;100403.55;124129;1102;104290;-74
2022/08/07 04:57:31;;;;;;;19.70;11.73;;;;;;;22.10;68.42;100400.80;124116;1102;104395;-75
2022/08/07 05:00:05;;;;;;;20.30;12.30;;;;;;;22.15;68.73;100401.60;124140;1102;102896;-75
2022/08/07 05:02:47;;;;;;;21.60;12.73;;;;;;;22.22;69.04;100403.30;124180;1102;104175;-75
2022/08/07 05:05:21;;;;;;;20.40;11.97;;;;;;;22.31;68.68;100401.42;124148;1102;104304;-75
2022/08/07 05:07:58;;;;;;;20.57;11.57;;;;;;;22.38;68.79;100403.12;124138;1102;104166;-75
2022/08/07 05:10:34;;;;;;;21.17;11.40;;;;;;;22.45;68.76;100404.77;124240;1102;102220;-75
2022/08/07 05:13:09;;;;;;;19.07;11.20;;;;;;;22.52;68.31;100408.27;124130;1102;104095;-75
2022/08/07 05:15:41;;;;;;;19.57;10.97;;;;;;;22.58;68.11;100409.05;124172;1099;104191;-75
2022/08/07 05:18:18;;;;;;;20.23;12.27;;;;;;;22.66;67.99;100410.70;124193;1099;102880;-75
2022/08/07 05:20:52;;;;;;;19.20;11.20;;;;;;;22.73;67.87;100410.58;124196;1102;103209;-74
2022/08/07 05:23:25;;;;;;;17.70;10.87;;;;;;;22.81;67.89;100410.45;124185;1102;104223;-75
2022/08/07 05:25:54;;;;;;;20.43;11.07;;;;;;;22.87;68.05;100409.48;124205;1099;104386;-75
2022/08/07 05:28:25;;;;;;;18.87;10.70;;;;;;;22.94;67.83;100406.68;124631;1099;102791;-74
2022/08/07 05:30:56;;;;;;;18.70;10.77;;;;;;;23.02;67.91;100411.03;124164;1102;104163;-75
2022/08/07 05:33:26;;;;;;;19.13;10.90;;;;;;;23.09;67.76;100412.70;124219;1102;104332;-75
2022/08/07 05:35:56;;;;;;;19.13;10.57;;;;;;;23.17;67.46;100409.90;124151;1102;104226;-75
2022/08/07 05:38:26;;;;;;;18.90;10.77;;;;;;;23.26;67.44;100412.41;124181;1102;104654;-75
2022/08/07 05:40:56;;;;;;;19.93;10.67;;;;;;;23.33;67.16;100411.41;124125;1102;102362;-75
2022/08/07 05:43:26;;;;;;;20.90;10.47;;;;;;;23.41;67.19;100419.30;124208;1101;104483;-74
2022/08/07 05:45:56;;;;;;;19.73;10.77;;;;;;;23.48;66.90;100419.16;124172;1102;104159;-74
2022/08/07 05:48:27;;;;;;;20.43;10.53;;;;;;;23.57;66.80;100419.87;124161;1102;104258;-75
2022/08/07 05:50:57;;;;;;;17.47;10.87;;;;;;;23.63;66.78;100415.28;124186;1102;104361;-75
2022/08/07 05:53:26;;;;;;;18.47;10.47;;;;;;;23.72;66.60;100418.67;124172;1102;102451;-75
2022/08/07 05:55:56;;;;;;;19.33;10.97;;;;;;;23.81;66.57;100421.17;124140;1102;102802;-74
2022/08/07 05:58:27;;;;;;;19.30;11.03;;;;;;;23.90;66.49;100428.19;124032;1102;104207;-75
2022/08/07 06:00:59;;;;;;;17.85;10.90;;;;;;;23.95;66.16;100416.47;124119;1102;104191;-75
2022/08/07 06:03:30;;;;;;;16.33;10.27;;;;;;;24.02;66.37;100426.13;124132;1102;104063;-75
2022/08/07 06:06:00;;;;;;;20.43;10.13;;;;;;;24.07;66.01;100422.48;124155;1099;102971;-75
2022/08/07 06:08:30;;;;;;;19.17;11.10;;;;;;;24.12;65.68;100417.89;124162;1099;104615;-75
2022/08/07 06:11:00;;;;;;;20.83;10.63;;;;;;;24.18;65.71;100420.44;124215;1099;104235;-75
2022/08/07 06:13:29;;;;;;;18.67;10.07;;;;;;;24.27;65.38;100422.05;124248;1102;102771;-75
2022/08/07 06:15:58;;;;;;;18.20;10.17;;;;;;;24.34;65.50;100426.34;124409;1099;104248;-75
2022/08/07 06:18:28;;;;;;;17.37;10.20;;;;;;;24.43;65.24;100417.22;124193;1099;104676;-75
2022/08/07 06:20:59;;;;;;;17.60;9.90;;;;;;;24.51;64.95;100421.50;124177;1101;104235;-75
2022/08/07 06:23:28;;;;;;;17.00;10.17;;;;;;;24.62;65.19;100417.70;124182;1102;104165;-75
2022/08/07 06:25:57;;;;;;;17.50;9.67;;;;;;;24.70;64.86;100413.92;124202;1102;102846;-75
2022/08/07 06:28:27;;;;;;;16.67;9.70;;;;;;;24.80;64.74;100421.75;124198;1102;104975;-74
2022/08/07 06:30:57;;;;;;;18.27;9.50;;;;;;;24.91;64.27;100414.31;124009;1102;104309;-76
2022/08/07 06:33:28;;;;;;;15.67;9.37;;;;;;;24.98;64.23;100421.30;124006;1102;104371;-75
2022/08/07 06:35:57;;;;;;;16.73;9.43;;;;;;;25.06;64.04;100416.61;123967;1102;104185;-75
2022/08/07 06:38:25;;;;;;;17.47;8.90;;;;;;;25.16;63.53;100411.00;123977;1102;103107;-75
2022/08/07 06:40:56;;;;;;;18.73;9.43;;;;;;;25.27;63.59;100416.97;123962;1102;104257;-75
2022/08/07 06:43:28;;;;;;;18.20;9.23;;;;;;;25.38;63.64;100414.03;124021;1103;102390;-75
2022/08/07 06:46:08;;;;;;;15.53;9.03;;;;;;;25.52;62.92;100414.52;123995;1102;104465;-75
2022/08/07 06:48:37;;;;;;;16.00;9.27;;;;;;;25.67;62.05;100418.60;124167;1102;104433;-75
2022/08/07 06:51:08;;;;;;;16.57;8.33;;;;;;;25.80;62.15;100420.03;124024;1102;104229;-75
2022/08/07 06:53:40;;;;;;;18.17;9.17;;;;;;;25.95;61.93;100421.38;123982;1102;103649;-75
2022/08/07 06:56:11;;;;;;;16.37;8.97;;;;;;;26.08;61.72;100416.54;123961;1105;102836;-76
2022/08/07 06:58:42;;;;;;;16.37;8.60;;;;;;;26.23;61.20;100419.72;124139;1102;104405;-76
2022/08/07 07:01:15;;;;;;;16.03;8.80;;;;;;;26.36;60.95;100415.70;124211;1102;104236;-75
2022/08/07 07:03:44;;;;;;;15.50;8.50;;;;;;;26.52;60.55;100414.30;124178;1102;102810;-75
2022/08/07 07:06:13;;;;;;;13.93;8.13;;;;;;;26.69;59.98;100415.59;124193;1099;104156;-76
2022/08/07 07:08:41;;;;;;;15.93;8.53;;;;;;;26.87;60.15;100414.98;124704;1099;104159;-75
2022/08/07 07:11:10;;;;;;;15.10;8.00;;;;;;;27.04;60.00;100416.25;124678;1099;104236;-75
2022/08/07 07:13:44;;;;;;;13.80;7.90;;;;;;;27.22;59.00;100412.02;124266;1102;102794;-76
2022/08/07 07:16:17;;;;;;;13.80;8.20;;;;;;;27.39;58.65;100409.64;124622;1099;103013;-75
2022/08/07 07:18:50;;;;;;;15.53;8.25;;;;;;;27.60;58.26;100420.61;124159;1099;102268;-75
2022/08/07 07:21:23;;;;;;;15.97;8.17;;;;;;;27.80;58.20;100420.75;124187;1099;104217;-76
2022/08/07 07:23:53;;;;;;;15.13;7.95;;;;;;;27.89;56.63;100416.84;124195;1099;104367;-75
2022/08/07 07:26:26;;;;;;;16.17;7.93;;;;;;;28.01;56.99;100422.73;124215;1099;104195;-76
2022/08/07 07:28:57;;;;;;;;;;;;;;;28.19;57.09;100421.13;124256;1099;104354;-75
2022/08/07 07:31:32;;;;;;;15.40;8.00;;;;;;;28.34;56.55;100420.53;124164;1099;104169;-75
2022/08/07 07:34:04;;;;;;;13.73;8.07;;;;;;;28.50;56.18;100428.89;124204;1099;104163;-75
2022/08/07 07:36:35;;;;;;;14.95;8.60;;;;;;;28.69;55.29;100427.25;124142;1099;104303;-75
2022/08/07 07:39:05;;;;;;;13.60;7.60;;;;;;;28.80;54.98;100426.81;124219;1099;104724;-75
2022/08/07 07:41:35;;;;;;;14.90;8.40;;;;;;;28.96;54.31;100424.34;124233;1099;104293;-75
2022/08/07 07:44:06;;;;;;;16.40;8.10;;;;;;;29.17;54.68;100424.37;124196;1099;102941;-76
2022/08/07 07:46:39;;;;;;;18.87;8.10;;;;;;;29.31;53.88;100422.00;124230;1099;104245;-76
2022/08/07 07:49:11;;;;;;;14.63;7.73;;;;;;;29.51;53.45;100420.23;124190;1099;111917;-75
2022/08/07 07:51:42;;;;;;;14.35;8.10;;;;;;;29.70;52.67;100418.47;124315;1099;104220;-75
2022/08/07 07:54:14;;;;;;;14.27;8.20;;;;;;;29.87;52.33;100433.06;124204;1099;104192;-76
2022/08/07 07:56:44;;;;;;;15.33;8.83;;;;;;;30.00;51.80;100419.87;124245;1099;104316;-76
2022/08/07 07:59:13;;;;;;;14.40;7.97;;;;;;;30.05;51.36;100418.69;124180;1099;104248;-75
2022/08/07 08:01:45;;;;;;;15.40;7.93;;;;;;;30.18;51.76;100420.83;124244;1099;101956;-75
2022/08/07 08:04:15;;;;;;;15.13;8.07;;;;;;;30.32;50.60;100417.46;124192;1098;104283;-76
2022/08/07 08:06:46;;;;;;;12.87;7.80;;;;;;;30.48;49.95;100418.53;124201;1099;104271;-75
2022/08/07 08:09:18;;;;;;;15.10;7.70;;;;;;;30.66;50.24;100416.73;124562;1099;104386;-75
2022/08/07 08:11:48;;;;;;;14.30;7.30;;;;;;;30.76;48.81;100412.63;124682;1099;103575;-75
2022/08/07 08:14:17;;;;;;;12.60;6.70;;;;;;;30.83;48.95;100411.34;124695;1099;104226;-75
2022/08/07 08:16:46;;;;;;;10.63;5.90;;;;;;;30.90;48.58;100409.22;124722;1099;104242;-75
2022/08/07 08:19:23;;;;;;;12.77;6.93;;;;;;;30.95;47.71;100417.98;124235;1099;102219;-75
2022/08/07 08:27:34;;;;;;;11.33;6.30;;;;;;;31.18;46.12;100416.84;124194;1099;102878;-75
2022/08/07 08:30:07;;;;;;;12.35;6.75;;;;;;;31.26;46.31;100412.84;124599;1099;104204;-76
2022/08/07 08:32:40;;;;;;;12.77;6.70;;;;;;;31.37;45.68;100407.75;124676;1099;102754;-76
2022/08/07 08:35:13;;;;;;;11.57;6.57;;;;;;;31.53;45.49;100403.28;124146;1099;104326;-75
2022/08/07 08:37:44;;;;;;;11.60;6.63;;;;;;;31.58;45.19;100408.47;124142;1099;104166;-76
2022/08/07 08:40:20;;;;;;;9.37;6.10;;;;;;;31.68;44.66;100408.84;124179;1099;102777;-76
2022/08/07 08:42:55;;;;;;;10.07;6.10;;;;;;;31.79;43.07;100413.69;124178;1099;104252;-75
2022/08/07 08:45:34;;;;;;;10.85;6.00;;;;;;;31.82;43.44;100416.23;124207;1102;102957;-76
2022/08/07 08:48:09;;;;;;;9.67;5.73;;;;;;;31.83;43.80;100409.86;124145;1099;102842;-75
2022/08/07 08:50:44;;;;;;;11.37;6.27;;;;;;;31.92;42.91;100414.78;124267;1099;104245;-76
2022/08/07 08:53:21;;;;;;;9.03;5.63;;;;;;;31.89;42.03;100414.95;124218;1099;104198;-75
2022/08/07 08:55:54;;;;;;;8.27;5.37;;;;;;;31.86;40.78;100410.55;124228;1099;104255;-75
2022/08/07 08:58:30;;;;;;;8.95;5.15;;;;;;;31.88;40.66;100405.05;124261;1099;103745;-76
2022/08/07 09:01:04;;;;;;;9.43;4.90;;;;;;;31.97;40.67;100406.39;124199;1099;104372;-76
2022/08/07 09:03:43;;;;;;;9.33;5.37;;;;;;;31.99;40.25;100405.35;124236;1099;104235;-75
2022/08/07 09:06:28;;;;;;;9.93;5.03;;;;;;;32.00;39.99;100395.36;124217;1099;104169;-75
2022/08/07 09:09:06;;;;;;;7.03;5.00;;;;;;;32.09;39.85;100400.31;124318;1099;104252;-75
2022/08/07 09:11:43;;;;;;;9.50;5.40;;;;;;;32.19;39.97;100390.67;124679;1099;104401;-75
2022/08/07 09:14:16;;;;;;;12.90;5.50;;;;;;;32.35;39.34;100395.23;124649;1099;103841;-75
2022/08/07 09:17:01;;;;;;;7.93;5.03;;;;;;;32.25;38.29;100398.47;124675;1099;104180;-75
2022/08/07 09:19:49;;;;;;;7.77;4.73;;;;;;;32.38;38.66;100392.34;124443;1099;104239;-75
2022/08/07 09:22:39;;;;;;;12.10;5.25;;;;;;;32.58;38.49;100393.91;124174;1099;104242;-76
2022/08/07 09:25:16;;;;;;;10.57;5.37;;;;;;;32.72;37.82;100387.71;124183;1099;104268;-75
2022/08/07 09:27:55;;;;;;;6.17;4.70;;;;;;;32.76;37.71;100383.86;124278;1099;104241;-75
2022/08/07 09:30:26;;;;;;;11.07;5.37;;;;;;;32.83;37.71;100376.21;124252;1099;104273;-76
2022/08/07 09:33:03;;;;;;;7.03;5.10;;;;;;;32.91;37.95;100372.08;124208;1099;104197;-75
2022/08/07 09:35:48;;;;;;;9.17;5.00;;;;;;;32.96;37.99;100379.96;124195;1099;104247;-75
2022/08/07 09:38:24;;;;;;;8.45;5.30;;;;;;;33.04;37.54;100371.34;124214;1099;104169;-75
2022/08/07 09:41:06;;;;;;;12.03;5.60;;;;;;;33.04;37.36;100363.20;124201;1099;103578;-75
2022/08/07 09:43:50;;;;;;;9.37;5.20;;;;;;;33.01;37.02;100363.38;124240;1102;104274;-75
2022/08/07 09:46:35;;;;;;;8.50;5.00;;;;;;;33.02;36.90;100368.72;124165;1099;104261;-76
2022/08/07 09:49:14;;;;;;;8.17;5.20;;;;;;;33.00;36.92;100364.34;124228;1099;104310;-76
2022/08/07 09:52:18;;;;;;;9.53;5.00;;;;;;;33.05;37.08;100367.64;124208;1099;118971;-75
2022/08/07 09:54:51;;;;;;;9.60;5.27;;;;;;;33.13;37.21;100368.08;124232;1099;104162;-76
2022/08/07 09:58:01;;;;;;;8.00;5.20;;;;;;;33.16;36.96;100362.45;124272;1099;104165;-75
2022/08/07 10:00:42;;;;;;;13.33;6.23;;;;;;;33.12;36.47;100369.03;124181;1099;104217;-76
2022/08/07 10:03:40;;;;;;;8.50;5.50;;;;;;;33.19;36.41;100358.69;124209;1099;104239;-75
2022/08/07 10:06:24;;;;;;;8.47;5.23;;;;;;;33.36;36.59;100358.51;124171;1099;104345;-76
2022/08/07 10:09:17;;;;;;;7.23;4.87;;;;;;;33.43;35.67;100359.02;124242;1099;104220;-75
2022/08/07 10:12:05;;;;;;;7.80;5.17;;;;;;;33.44;35.49;100360.75;124221;1099;104274;-75
2022/08/07 10:14:58;;;;;;;7.73;4.60;;;;;;;33.55;35.54;100360.09;124224;1099;104366;-75
2022/08/07 10:18:08;;;;;;;9.33;4.78;;;;;;;33.60;35.08;100363.41;124276;1099;104290;-75
2022/08/07 10:20:53;;;;;;;8.70;5.10;;;;;;;33.64;34.64;100354.96;124219;1099;104172;-76
2022/08/07 10:23:48;;;;;;;7.33;4.60;;;;;;;33.68;34.54;100353.78;124156;1099;104184;-77
2022/08/07 10:26:36;;;;;;;7.83;4.80;;;;;;;33.59;33.48;100345.33;124204;1099;104251;-76
2022/08/07 10:29:24;;;;;;;8.27;5.10;;;;;;;33.73;33.83;100358.09;124254;1102;104210;-75
2022/08/07 10:32:11;;;;;;;8.37;5.00;;;;;;;33.73;33.44;100347.21;124205;1099;102362;-75
2022/08/07 10:34:56;;;;;;;8.53;4.80;;;;;;;33.82;33.54;100341.18;124197;1099;104249;-75
2022/08/07 10:37:36;;;;;;;7.50;4.73;;;;;;;33.93;33.44;100345.94;124206;1099;104057;-75
2022/08/07 10:40:11;;;;;;;6.75;4.60;;;;;;;33.98;33.25;100352.81;124253;1099;104232;-75
2022/08/07 10:42:46;;;;;;;8.63;4.70;;;;;;;33.92;32.83;100338.73;124219;1099;111699;-76
2022/08/07 10:45:27;;;;;;;10.07;4.80;;;;;;;33.93;32.32;100337.77;124220;1099;102797;-76
2022/08/07 10:48:12;;;;;;;13.23;4.77;;;;;;;33.93;32.11;100333.19;124197;1099;103019;-76
2022/08/07 10:50:48;;;;;;;8.53;4.37;;;;;;;33.94;32.24;100326.78;124159;1099;102825;-76
2022/08/07 10:53:26;;;;;;;7.65;4.35;;;;;;;33.94;32.05;100331.33;124277;1099;104248;-76
2022/08/07 10:56:04;;;;;;;12.83;4.77;;;;;;;33.95;31.84;100325.79;124244;1099;104233;-76
2022/08/07 10:58:50;;;;;;;10.10;4.53;;;;;;;33.97;31.42;100329.31;124692;1099;104255;-76
2022/08/07 11:01:33;;;;;;;7.83;4.70;;;;;;;34.08;31.45;100325.89;124601;1098;102807;-76
2022/08/07 11:04:23;;;;;;;9.03;4.33;;;;;;;34.18;31.38;100321.56;124132;1099;104255;-76
2022/08/07 11:07:01;;;;;;;5.80;4.60;;;;;;;34.25;31.45;100322.05;124286;1099;104214;-76
2022/08/07 11:09:35;;;;;;;9.13;4.20;;;;;;;34.41;31.33;100310.14;124224;1099;104194;-76
2022/08/07 11:12:13;;;;;;;13.80;4.70;;;;;;;34.32;30.90;100309.79;124442;1099;101925;-76
2022/08/07 11:14:47;;;;;;;9.20;4.40;;;;;;;34.35;30.95;100311.45;124244;1099;102106;-76
2022/08/07 11:17:23;;;;;;;5.07;4.30;;;;;;;34.46;30.88;100303.41;124198;1099;104079;-76
2022/08/07 11:20:00;;;;;;;8.37;4.37;;;;;;;34.56;30.67;100293.66;124262;1099;104162;-76
2022/08/07 11:22:33;;;;;;;13.57;4.20;;;;;;;34.65;30.68;100292.13;124191;1099;102780;-76
2022/08/07 11:25:12;;;;;;;5.80;4.45;;;;;;;34.82;30.37;100287.42;124221;1102;104273;-76
2022/08/07 11:27:49;;;;;;;7.57;4.67;;;;;;;34.90;30.00;100290.47;124178;1099;102994;-75
2022/08/07 11:30:23;;;;;;;5.00;4.17;;;;;;;34.95;29.94;100281.97;124207;1099;103613;-76
2022/08/07 11:33:00;;;;;;;6.70;4.70;;;;;;;35.05;30.19;100278.50;124195;1102;104294;-76